Flight Track Log - Related Links

Times and Time Zones

All times are in EDT time to prevent confusion due to time zone crossing. See the RPA3901 flight status page for this flight to view local times or setup timezone preferences in your user account.

Time Position Orientation Groundspeed Altitude Reporting Facility
EDT Latitude Longitude Course Direction KTS MPH feet Rate Location/Type
Sat 05:43:54 PM 38.9803 -77.4475 35° Northeast 187 215 2,300  Level Washington Center
Sat 05:44:54 PM 39.0300 -77.4808 332° Northwest 192 221 4,900 2,521 Climbing Washington Center
Sat 05:45:53 PM 39.0836 -77.5089 338° Northwest 197 227 7,300 2,300 Climbing Washington Center
Sat 05:46:54 PM 39.1503 -77.5214 352° North 217 250 9,500 2,262 Climbing Washington Center
Sat 05:47:55 PM 39.2250 -77.5261 357° North 246 283 11,900 1,815 Climbing Washington Center
Sat 05:48:53 PM 39.3064 -77.5308 357° North 265 305 13,100 610 Climbing Washington Center
Sat 05:49:00 PM 39.4191 -77.0339 35° Northeast  Level Estimated
Sat 05:49:53 PM 39.3856 -77.5275 North 284 327 13,100  Level Washington Center
Sat 05:50:54 PM 39.4631 -77.5056 12° North 284 327 14,000 1,238 Climbing Washington Center
Sat 05:52:33 PM 39.6108 -77.4653 12° North 323 372 16,400 1,132 Climbing New York Center
Sat 05:53:33 PM 39.7053 -77.4528 North 332 382 17,000 300 Climbing New York Center
Sat 05:54:33 PM 39.8056 -77.4514 North 348 400 17,000  Level New York Center
Sat 05:55:33 PM 39.9094 -77.4206 13° North 372 428 17,000  Level New York Center
Sat 05:56:33 PM 40.0039 -77.3700 22° Northeast 372 428 17,000  Level New York Center
Sat 05:57:33 PM 40.0989 -77.3139 24° Northeast 372 428 17,000  Level New York Center
Sat 05:58:33 PM 40.1911 -77.2656 22° Northeast 364 419 17,000  Level New York Center
Sat 05:59:33 PM 40.2731 -77.2186 24° Northeast 364 419 17,000  Level New York Center
Sat 06:00:33 PM 40.3739 -77.1628 23° Northeast 359 413 17,000  Level New York Center
Sat 06:01:33 PM 40.4578 -77.1158 23° Northeast 359 413 17,000  Level New York Center
Sat 06:02:33 PM 40.5589 -77.0597 23° Northeast 359 413 17,000  Level New York Center
Sat 06:03:33 PM 40.6447 -77.0128 23° Northeast 364 419 17,000  Level New York Center
Sat 06:04:33 PM 40.7478 -76.9536 24° Northeast 359 413 17,000  Level New York Center
Sat 06:05:33 PM 40.8317 -76.9064 23° Northeast 365 420 17,000  Level New York Center
Sat 06:06:33 PM 40.9347 -76.8469 24° Northeast 365 420 17,000  Level New York Center
Sat 06:07:33 PM 41.0161 -76.8019 23° Northeast 365 420 17,000  Level New York Center
Sat 06:08:33 PM 41.1106 -76.7497 23° Northeast 365 420 17,000  Level New York Center
Sat 06:09:33 PM 41.2050 -76.6947 24° Northeast 365 420 17,000  Level New York Center
Sat 06:11:34 PM 41.3844 -76.5897 24° Northeast 358 412 17,000  Level Boston Center
Sat 06:12:35 PM 41.4797 -76.5356 23° Northeast 365 420 17,000  Level Boston Center
Sat 06:13:36 PM 41.5728 -76.4811 24° Northeast 360 414 17,000  Level Boston Center
Sat 06:14:39 PM 41.6658 -76.4272 23° Northeast 361 415 17,000  Level Boston Center
Sat 06:15:40 PM 41.7592 -76.3733 23° Northeast 363 418 17,000  Level Boston Center
Sat 06:16:40 PM 41.8522 -76.3194 23° Northeast 363 418 17,000  Level Boston Center
Sat 06:17:41 PM 41.9631 -76.2547 23° Northeast 362 417 17,000  Level Boston Center
Sat 06:18:42 PM 42.0547 -76.2014 23° Northeast 360 414 17,000  Level Boston Center
Sat 06:19:42 PM 42.1467 -76.1450 24° Northeast 362 417 17,000  Level Boston Center
Sat 06:20:43 PM 42.1997 -76.0250 59° Northeast 375 432 17,000  Level Boston Center
Sat 06:21:44 PM 42.2425 -75.8950 66° East 379 436 17,000  Level Boston Center
Sat 06:22:47 PM 42.2769 -75.7614 71° East 378 435 17,000  Level Boston Center
Sat 06:23:47 PM 42.3078 -75.6344 72° East 381 438 17,000  Level Boston Center
Sat 06:24:48 PM 42.3411 -75.4978 72° East 384 442 17,000  Level Boston Center
Sat 06:25:50 PM 42.3828 -75.3361 71° East 384 442 17,000  Level Boston Center
Sat 06:26:51 PM 42.4167 -75.1997 71° East 385 443 17,000  Level Boston Center
Sat 06:27:52 PM 42.4497 -75.0619 72° East 390 449 17,000  Level Boston Center
Sat 06:28:22 PM 42.4658 -74.9914 73° East 394 453 17,000  Level Boston Center
Sat 06:28:34 PM 42.4742 -74.9594 71° East 394 453 17,000 -200 Level Boston Center
Sat 06:28:52 PM 42.4833 -74.9256 70° East 388 447 16,900 -1,377 Descending Boston Center
Sat 06:29:35 PM 42.5058 -74.8192 74° East 385 443 15,600 -1,770 Descending Boston Center
Sat 06:29:53 PM 42.5175 -74.7783 69° East 396 456 15,100 -1,700 Descending Boston Center
Sat 06:30:35 PM 42.5403 -74.6858 71° East 380 437 13,900 -1,770 Descending Boston Center
Sat 06:30:54 PM 42.5506 -74.6431 72° East 380 437 13,300 -1,742 Descending Boston Center
Sat 06:31:37 PM 42.5714 -74.5569 72° East 362 417 12,100 -1,672 Descending Boston Center
Sat 06:31:55 PM 42.5797 -74.5175 74° East 353 406 11,600 -1,862 Descending Boston Center
Sat 06:32:35 PM 42.5847 -74.4306 86° East 299 344 10,300 -1,770 Descending Boston Center
Sat 06:32:56 PM 42.5867 -74.3950 86° East 303 349 9,800 -1,672 Descending Boston Center
Sat 06:33:36 PM 42.5908 -74.3192 86° East 285 328 8,600 -1,700 Descending Boston Center
Sat 06:33:56 PM 42.5947 -74.2850 81° East 294 338 8,100 -1,645 Descending Boston Center
Sat 06:34:38 PM 42.5981 -74.2111 86° East 293 337 6,900 -1,672 Descending Boston Center
Sat 06:34:57 PM 42.6017 -74.1764 82° East 291 335 6,400 -1,612 Descending Boston Center
Sat 06:35:45 PM 42.6039 -74.0994 88° East 276 318 5,100 -1,700 Descending Boston Center
Sat 06:35:57 PM 42.6069 -74.0747 80° East 274 315 4,700 -984 Descending Boston Center
Sat 06:36:46 PM 42.6086 -73.9936 88° East 261 300 4,100 -689 Descending Boston Center
Sat 06:36:58 PM 42.6117 -73.9683 81° East 266 306 4,000 -103 Descending Boston Center
Sat 06:37:44 PM 42.6117 -73.8956 90° East 250 288 4,000  Level Boston Center
Sat 06:37:59 PM 42.6128 -73.8750 86° East 249 287 4,000  Level Boston Center
Sat 06:38:45 PM 42.6153 -73.8067 87° East 237 273 4,000  Level Boston Center
Sat 06:39:00 PM 42.6169 -73.7850 84° East 241 277 4,000 -381 Level Boston Center
Sat 06:39:48 PM 42.6172 -73.7144 90° East 245 282 3,600 -500 Descending Boston Center
Sat 06:40:00 PM 42.6192 -73.6947 82° East 242 278 3,500 -600 Descending Boston Center
Sat 06:40:48 PM 42.6197 -73.6308 89° East 220 253 3,000 -469 Descending Boston Center
Sat 06:41:04 PM 42.6250 -73.6067 73° East 223 257 3,000  Level Boston Center
Sat 06:41:48 PM 42.6644 -73.5964 11° North 207 238 3,000  Level Boston Center
Sat 06:42:03 PM 42.6797 -73.6019 345° North 209 241 3,000  Level Boston Center
Sat 06:42:48 PM 42.7142 -73.6072 354° North 168 193 3,000  Level Boston Center
Sat 06:43:03 PM 42.7269 -73.6117 346° North 176 203 3,000 -197 Level Boston Center
Sat 06:43:49 PM 42.7506 -73.6428 316° Northwest 179 206 2,800 -393 Descending Boston Center
Sat 06:44:04 PM 42.7531 -73.6572 283° West 177 204 2,600 -689 Descending Boston Center
Sat 06:44:50 PM 42.7517 -73.6956 267° West 128 147 2,100 -689 Descending Boston Center
Sat 06:45:05 PM 42.7514 -73.7103 269° West 139 160 1,900 -778 Descending Boston Center
Sat 06:45:44 PM 42.7497 -73.7297 263° West 90 104 1,400 -762 Descending Boston Center
Sat 06:46:08 PM 42.7508 -73.7461 275° West 101 116 1,100 -716 Descending Boston Center
Sat 06:46:51 PM 42.7503 -73.7736 268° West 105 121 600 -800 Descending Boston Center
Sat 06:47:08 PM 42.7497 -73.7875 267° West 107 123 300 -234 Descending Boston Center
Sat 06:48:08 PM 42.7486 -73.8292 268° West 109 125 300  Level Boston Center

Login

Don't have an account? Register now (free) for customized features, flight alerts, and more!